Hovedside
METAR-TAF:

METAR-TAF

Lufthavner :

Ontario Municipal Airport

Ontario, Oregon, USA

breddegrad: 44-01-10N, lengdegrad: 117-00-35W, høyde over havet: 667 m

Gjeldene værobservasjon

Denne rapporten ble laget for 49 minutter siden, klokken 13:53 UTC
Flau vind
Temperatur 2°C
Luftfuktighet 87%
Trykk 1020 hPa
Sikt: 8.0 km
Overskyet i en høyde av 2100 ft
dis

METAR: KONO 051353Z AUTO 00000KT 5SM BR OVC021 02/00 A3012 RMK AO2 SLP215 T00170000

Tid: 07:42 (14:42 UTC)


TAF: fraværende

Værobservasjoner og værvarsel for over 4000 flyplasser (METAR- og TAF-rapporter).

Tilgjengelige stasjoner er representert av de røde og gule prikkene på kartet.

Hold musepekeren over prikken for å se navnet på stasjonen.

Klikk så for å se værobservasjoner og -varsler.

For å forandre kartet kan du klikke på den grønne knappen med svart kryss for å zoome inn, på den grønne knappen med strek for å zoome ut, eller på de grønne pilene for å se tilstøtende kart.


METAR-TAF: